sensor_id;sensor_type;location;lat;lon;timestamp;pressure;altitude;pressure_sealevel;temperature;humidity
76260;BME280;65076;52.362;6.588;2023-10-19T00:05:06;99514.00;;;10.24;90.51
76260;BME280;65076;52.362;6.588;2023-10-19T00:10:10;99500.81;;;10.32;90.29
76260;BME280;65076;52.362;6.588;2023-10-19T00:12:44;99497.56;;;10.00;90.34
76260;BME280;65076;52.362;6.588;2023-10-19T00:20:30;99508.69;;;10.23;90.94
76260;BME280;65076;52.362;6.588;2023-10-19T00:25:46;99464.00;;;10.04;92.11
76260;BME280;65076;52.362;6.588;2023-10-19T00:30:48;99478.22;;;10.33;91.84
76260;BME280;65076;52.362;6.588;2023-10-19T00:33:20;99453.41;;;9.74;92.51
76260;BME280;65076;52.362;6.588;2023-10-19T00:45:57;99451.66;;;10.13;93.59
76260;BME280;65076;52.362;6.588;2023-10-19T00:48:31;99471.47;;;10.13;93.49
76260;BME280;65076;52.362;6.588;2023-10-19T00:51:05;99452.19;;;10.05;93.13
76260;BME280;65076;52.362;6.588;2023-10-19T00:58:55;99438.31;;;10.37;93.91
76260;BME280;65076;52.362;6.588;2023-10-19T01:04:00;99430.00;;;10.40;93.66
76260;BME280;65076;52.362;6.588;2023-10-19T01:09:01;99443.63;;;10.26;93.62
76260;BME280;65076;52.362;6.588;2023-10-19T01:11:37;99425.03;;;10.46;93.90
76260;BME280;65076;52.362;6.588;2023-10-19T01:19:18;99401.47;;;10.36;94.13
76260;BME280;65076;52.362;6.588;2023-10-19T01:26:54;99397.34;;;10.55;93.93
76260;BME280;65076;52.362;6.588;2023-10-19T01:34:24;99394.97;;;10.51;93.64
76260;BME280;65076;52.362;6.588;2023-10-19T01:37:00;99397.97;;;10.59;93.97
76260;BME280;65076;52.362;6.588;2023-10-19T01:44:39;99380.53;;;10.63;93.53
76260;BME280;65076;52.362;6.588;2023-10-19T01:52:05;99396.44;;;10.80;93.78
76260;BME280;65076;52.362;6.588;2023-10-19T01:54:38;99387.69;;;10.64;94.22
76260;BME280;65076;52.362;6.588;2023-10-19T02:04:43;99395.56;;;10.80;95.05
76260;BME280;65076;52.362;6.588;2023-10-19T02:09:44;99370.91;;;10.72;96.29
76260;BME280;65076;52.362;6.588;2023-10-19T02:14:48;99368.31;;;10.83;95.98
76260;BME280;65076;52.362;6.588;2023-10-19T02:22:22;99349.13;;;10.86;96.89
76260;BME280;65076;52.362;6.588;2023-10-19T02:27:27;99334.25;;;11.28;95.81
76260;BME280;65076;52.362;6.588;2023-10-19T02:32:32;99325.31;;;11.38;95.87
76260;BME280;65076;52.362;6.588;2023-10-19T02:35:06;99321.78;;;11.25;95.45
76260;BME280;65076;52.362;6.588;2023-10-19T02:42:44;99316.09;;;11.41;95.23
76260;BME280;65076;52.362;6.588;2023-10-19T02:47:47;99312.09;;;11.58;95.10
76260;BME280;65076;52.362;6.588;2023-10-19T02:52:48;99320.47;;;11.55;94.66
76260;BME280;65076;52.362;6.588;2023-10-19T02:55:25;99300.88;;;11.51;94.63
76260;BME280;65076;52.362;6.588;2023-10-19T03:03:07;99301.63;;;11.77;94.47
76260;BME280;65076;52.362;6.588;2023-10-19T03:05:39;99251.84;;;11.89;93.99
76260;BME280;65076;52.362;6.588;2023-10-19T03:13:18;99306.09;;;12.11;92.40
76260;BME280;65076;52.362;6.588;2023-10-19T03:18:24;99301.09;;;11.83;92.55
76260;BME280;65076;52.362;6.588;2023-10-19T03:25:56;99302.41;;;12.12;92.83
76260;BME280;65076;52.362;6.588;2023-10-19T03:31:21;99293.81;;;12.29;92.93
76260;BME280;65076;52.362;6.588;2023-10-19T03:36:26;99295.75;;;12.16;93.46
76260;BME280;65076;52.362;6.588;2023-10-19T03:43:55;99282.56;;;12.23;93.49
76260;BME280;65076;52.362;6.588;2023-10-19T03:46:29;99288.84;;;12.46;93.48
76260;BME280;65076;52.362;6.588;2023-10-19T03:54:29;99242.28;;;12.29;93.38
76260;BME280;65076;52.362;6.588;2023-10-19T04:02:02;99278.34;;;12.86;92.96
76260;BME280;65076;52.362;6.588;2023-10-19T04:07:05;99258.13;;;13.10;91.48
76260;BME280;65076;52.362;6.588;2023-10-19T04:09:52;99268.25;;;13.08;91.20
76260;BME280;65076;52.362;6.588;2023-10-19T04:17:57;99244.28;;;13.25;91.34
76260;BME280;65076;52.362;6.588;2023-10-19T04:22:56;99251.28;;;13.59;90.07
76260;BME280;65076;52.362;6.588;2023-10-19T04:30:38;99252.34;;;13.68;92.25
76260;BME280;65076;52.362;6.588;2023-10-19T04:35:37;99266.00;;;13.98;89.32
76260;BME280;65076;52.362;6.588;2023-10-19T04:40:42;99240.06;;;13.32;92.06
76260;BME280;65076;52.362;6.588;2023-10-19T04:48:24;99245.03;;;14.10;90.32
76260;BME280;65076;52.362;6.588;2023-10-19T04:53:27;99233.59;;;13.85;91.91
76260;BME280;65076;52.362;6.588;2023-10-19T04:56:03;99237.31;;;13.84;89.93
76260;BME280;65076;52.362;6.588;2023-10-19T04:58:38;99239.13;;;14.05;89.97
76260;BME280;65076;52.362;6.588;2023-10-19T05:06:13;99248.06;;;14.16;91.17
76260;BME280;65076;52.362;6.588;2023-10-19T05:11:18;99241.91;;;14.45;88.01
76260;BME280;65076;52.362;6.588;2023-10-19T05:16:20;99229.56;;;14.40;89.55
76260;BME280;65076;52.362;6.588;2023-10-19T05:21:27;99244.53;;;14.56;88.97
76260;BME280;65076;52.362;6.588;2023-10-19T05:28:59;99237.94;;;14.49;90.16
76260;BME280;65076;52.362;6.588;2023-10-19T05:31:31;99247.44;;;14.64;89.88
76260;BME280;65076;52.362;6.588;2023-10-19T05:41:43;99237.41;;;14.64;89.96
76260;BME280;65076;52.362;6.588;2023-10-19T05:44:16;99242.53;;;14.58;89.21
76260;BME280;65076;52.362;6.588;2023-10-19T05:49:24;99235.81;;;14.62;88.78
76260;BME280;65076;52.362;6.588;2023-10-19T05:54:25;99262.38;;;14.79;90.55
76260;BME280;65076;52.362;6.588;2023-10-19T05:57:01;99262.41;;;14.98;89.92
76260;BME280;65076;52.362;6.588;2023-10-19T06:02:05;99261.06;;;14.73;89.69
76260;BME280;65076;52.362;6.588;2023-10-19T06:04:37;99263.91;;;14.62;89.82
76260;BME280;65076;52.362;6.588;2023-10-19T06:12:20;99268.06;;;14.66;89.92
76260;BME280;65076;52.362;6.588;2023-10-19T06:17:20;99284.03;;;14.50;90.37
76260;BME280;65076;52.362;6.588;2023-10-19T06:19:54;99240.81;;;14.26;92.18
76260;BME280;65076;52.362;6.588;2023-10-19T06:27:26;99280.56;;;14.78;89.96
76260;BME280;65076;52.362;6.588;2023-10-19T06:37:31;99270.91;;;15.05;88.58
76260;BME280;65076;52.362;6.588;2023-10-19T06:42:38;99292.00;;;15.12;87.02
76260;BME280;65076;52.362;6.588;2023-10-19T06:47:36;99291.25;;;15.10;86.96
76260;BME280;65076;52.362;6.588;2023-10-19T06:55:16;99295.53;;;14.94;89.28
76260;BME280;65076;52.362;6.588;2023-10-19T06:57:57;99308.88;;;14.97;88.15
76260;BME280;65076;52.362;6.588;2023-10-19T07:08:00;99322.84;;;15.32;86.93
76260;BME280;65076;52.362;6.588;2023-10-19T07:13:10;99314.19;;;15.08;87.43
76260;BME280;65076;52.362;6.588;2023-10-19T07:18:16;99322.78;;;15.03;88.89
76260;BME280;65076;52.362;6.588;2023-10-19T07:25:47;99332.91;;;15.41;87.40
76260;BME280;65076;52.362;6.588;2023-10-19T07:30:56;99334.00;;;15.19;87.66
76260;BME280;65076;52.362;6.588;2023-10-19T07:38:24;99323.00;;;15.40;86.56
76260;BME280;65076;52.362;6.588;2023-10-19T07:40:59;99335.28;;;15.06;87.41
76260;BME280;65076;52.362;6.588;2023-10-19T07:43:38;99300.63;;;15.27;88.82
76260;BME280;65076;52.362;6.588;2023-10-19T07:51:08;99308.28;;;15.62;87.89
76260;BME280;65076;52.362;6.588;2023-10-19T07:53:41;99324.28;;;15.26;87.43
76260;BME280;65076;52.362;6.588;2023-10-19T08:03:49;99338.78;;;15.27;88.88
76260;BME280;65076;52.362;6.588;2023-10-19T08:11:24;99328.94;;;15.74;87.71
76260;BME280;65076;52.362;6.588;2023-10-19T08:16:23;99327.44;;;15.41;89.32
76260;BME280;65076;52.362;6.588;2023-10-19T08:23:59;99342.41;;;15.76;88.05
76260;BME280;65076;52.362;6.588;2023-10-19T08:31:29;99332.59;;;15.44;88.86
76260;BME280;65076;52.362;6.588;2023-10-19T08:34:04;99330.22;;;15.60;88.86
76260;BME280;65076;52.362;6.588;2023-10-19T08:44:08;99335.22;;;16.13;88.20
76260;BME280;65076;52.362;6.588;2023-10-19T08:51:46;99331.81;;;16.58;85.11
76260;BME280;65076;52.362;6.588;2023-10-19T08:54:20;99331.22;;;16.73;84.57
76260;BME280;65076;52.362;6.588;2023-10-19T09:02:05;99326.56;;;16.83;82.89
76260;BME280;65076;52.362;6.588;2023-10-19T09:04:50;99320.84;;;17.04;83.34
76260;BME280;65076;52.362;6.588;2023-10-19T09:09:50;99332.50;;;16.79;82.03
76260;BME280;65076;52.362;6.588;2023-10-19T09:17:27;99326.34;;;16.67;82.27
76260;BME280;65076;52.362;6.588;2023-10-19T09:25:01;99323.28;;;17.07;83.21
76260;BME280;65076;52.362;6.588;2023-10-19T09:32:32;99316.94;;;17.34;82.17
76260;BME280;65076;52.362;6.588;2023-10-19T09:35:05;99311.44;;;17.61;81.68
76260;BME280;65076;52.362;6.588;2023-10-19T09:40:18;99302.38;;;17.33;81.77
76260;BME280;65076;52.362;6.588;2023-10-19T09:45:22;99316.53;;;17.29;82.91
76260;BME280;65076;52.362;6.588;2023-10-19T09:52:57;99310.00;;;17.93;78.97
76260;BME280;65076;52.362;6.588;2023-10-19T09:58:05;99310.63;;;17.87;79.26
76260;BME280;65076;52.362;6.588;2023-10-19T10:03:43;99290.34;;;17.71;80.29
76260;BME280;65076;52.362;6.588;2023-10-19T10:11:19;99300.63;;;18.65;78.41
76260;BME280;65076;52.362;6.588;2023-10-19T10:18:54;99296.66;;;18.59;78.76
76260;BME280;65076;52.362;6.588;2023-10-19T10:23:57;99313.94;;;18.34;77.65
76260;BME280;65076;52.362;6.588;2023-10-19T10:29:09;99314.13;;;18.92;77.55
76260;BME280;65076;52.362;6.588;2023-10-19T10:39:43;99301.31;;;18.67;77.90
76260;BME280;65076;52.362;6.588;2023-10-19T10:44:46;99285.22;;;19.05;79.83
76260;BME280;65076;52.362;6.588;2023-10-19T10:47:27;99306.84;;;19.17;77.82
76260;BME280;65076;52.362;6.588;2023-10-19T11:18:04;99299.50;;;21.96;66.65
76260;BME280;65076;52.362;6.588;2023-10-19T11:23:08;99288.56;;;23.57;62.87
76260;BME280;65076;52.362;6.588;2023-10-19T11:30:36;99285.59;;;22.79;61.71
76260;BME280;65076;52.362;6.588;2023-10-19T11:33:12;99273.13;;;22.68;61.57
76260;BME280;65076;52.362;6.588;2023-10-19T11:40:45;99247.88;;;22.13;63.45
76260;BME280;65076;52.362;6.588;2023-10-19T11:45:48;99246.50;;;22.09;63.53
76260;BME280;65076;52.362;6.588;2023-10-19T11:48:22;99216.88;;;22.25;62.78
76260;BME280;65076;52.362;6.588;2023-10-19T12:06:04;99252.38;;;22.43;62.37
76260;BME280;65076;52.362;6.588;2023-10-19T12:11:05;99239.06;;;22.61;61.79
76260;BME280;65076;52.362;6.588;2023-10-19T12:16:19;99231.63;;;21.27;65.69
76260;BME280;65076;52.362;6.588;2023-10-19T12:24:10;99209.38;;;20.75;67.87
76260;BME280;65076;52.362;6.588;2023-10-19T12:29:17;99209.09;;;20.61;70.00
76260;BME280;65076;52.362;6.588;2023-10-19T12:36:54;99212.88;;;20.60;69.16
76260;BME280;65076;52.362;6.588;2023-10-19T12:41:59;99197.75;;;20.95;67.83
76260;BME280;65076;52.362;6.588;2023-10-19T12:54:52;99191.09;;;21.21;66.97
76260;BME280;65076;52.362;6.588;2023-10-19T13:04:54;99188.97;;;22.72;61.07
76260;BME280;65076;52.362;6.588;2023-10-19T13:12:30;99204.75;;;21.60;64.41
76260;BME280;65076;52.362;6.588;2023-10-19T13:17:34;99210.31;;;21.51;64.04
76260;BME280;65076;52.362;6.588;2023-10-19T13:22:38;99210.78;;;21.32;65.61
76260;BME280;65076;52.362;6.588;2023-10-19T13:27:48;99183.25;;;20.40;67.94
76260;BME280;65076;52.362;6.588;2023-10-19T13:35:23;99157.31;;;20.73;66.72
76260;BME280;65076;52.362;6.588;2023-10-19T13:45:22;99173.44;;;20.45;66.85
76260;BME280;65076;52.362;6.588;2023-10-19T13:50:24;99174.16;;;20.31;67.01
76260;BME280;65076;52.362;6.588;2023-10-19T13:55:35;99172.31;;;20.07;68.91
76260;BME280;65076;52.362;6.588;2023-10-19T14:00:44;99166.75;;;20.40;68.48
76260;BME280;65076;52.362;6.588;2023-10-19T14:05:47;99177.59;;;20.25;67.68
76260;BME280;65076;52.362;6.588;2023-10-19T14:08:22;99177.44;;;20.10;68.14
76260;BME280;65076;52.362;6.588;2023-10-19T14:16:05;99162.38;;;19.90;69.42
76260;BME280;65076;52.362;6.588;2023-10-19T14:23:50;99153.25;;;20.14;69.47
76260;BME280;65076;52.362;6.588;2023-10-19T14:31:27;99163.94;;;19.93;68.96
76260;BME280;65076;52.362;6.588;2023-10-19T14:36:31;99166.00;;;19.74;71.51
76260;BME280;65076;52.362;6.588;2023-10-19T14:41:32;99150.44;;;19.51;72.15
76260;BME280;65076;52.362;6.588;2023-10-19T14:46:35;99158.13;;;19.87;70.90
76260;BME280;65076;52.362;6.588;2023-10-19T14:51:36;99150.06;;;19.70;72.53
76260;BME280;65076;52.362;6.588;2023-10-19T14:54:14;99145.25;;;19.48;73.16
76260;BME280;65076;52.362;6.588;2023-10-19T14:59:15;99144.56;;;19.70;73.35
76260;BME280;65076;52.362;6.588;2023-10-19T15:04:22;99142.84;;;19.69;72.95
76260;BME280;65076;52.362;6.588;2023-10-19T15:06:56;99141.66;;;19.71;73.66
76260;BME280;65076;52.362;6.588;2023-10-19T15:09:30;99140.31;;;19.67;72.95
76260;BME280;65076;52.362;6.588;2023-10-19T15:19:36;99128.47;;;19.10;77.31
76260;BME280;65076;52.362;6.588;2023-10-19T15:29:54;99133.06;;;19.42;77.47
76260;BME280;65076;52.362;6.588;2023-10-19T15:35:02;99127.75;;;19.08;77.99
76260;BME280;65076;52.362;6.588;2023-10-19T15:40:07;99124.50;;;19.04;78.71
76260;BME280;65076;52.362;6.588;2023-10-19T15:45:10;99112.06;;;18.60;79.74
76260;BME280;65076;52.362;6.588;2023-10-19T15:53:12;99117.25;;;18.37;81.89
76260;BME280;65076;52.362;6.588;2023-10-19T16:00:58;99113.13;;;18.25;83.21
76260;BME280;65076;52.362;6.588;2023-10-19T16:03:31;99099.00;;;18.46;83.08
76260;BME280;65076;52.362;6.588;2023-10-19T16:11:12;99094.81;;;18.26;83.30
76260;BME280;65076;52.362;6.588;2023-10-19T16:18:45;99106.94;;;18.23;85.65
76260;BME280;65076;52.362;6.588;2023-10-19T16:26:22;99108.38;;;17.93;86.83
76260;BME280;65076;52.362;6.588;2023-10-19T16:31:23;99104.53;;;17.34;89.59
76260;BME280;65076;52.362;6.588;2023-10-19T16:33:56;99095.50;;;17.16;91.30
76260;BME280;65076;52.362;6.588;2023-10-19T16:41:31;99086.63;;;16.79;95.15
76260;BME280;65076;52.362;6.588;2023-10-19T16:51:35;99091.47;;;16.85;93.34
76260;BME280;65076;52.362;6.588;2023-10-19T16:56:39;99054.44;;;16.37;93.46
76260;BME280;65076;52.362;6.588;2023-10-19T17:01:44;99082.88;;;16.17;94.92
76260;BME280;65076;52.362;6.588;2023-10-19T17:09:23;99074.50;;;15.64;98.67
76260;BME280;65076;52.362;6.588;2023-10-19T17:12:03;99104.88;;;15.79;98.61
76260;BME280;65076;52.362;6.588;2023-10-19T17:19:34;99090.91;;;15.54;98.06
76260;BME280;65076;52.362;6.588;2023-10-19T17:22:06;99097.19;;;15.64;97.09
76260;BME280;65076;52.362;6.588;2023-10-19T17:29:51;99088.06;;;15.08;98.69
76260;BME280;65076;52.362;6.588;2023-10-19T17:37:23;99081.94;;;15.06;100.00
76260;BME280;65076;52.362;6.588;2023-10-19T17:47:26;99100.94;;;15.35;97.55
76260;BME280;65076;52.362;6.588;2023-10-19T17:52:26;99080.09;;;14.97;97.45
76260;BME280;65076;52.362;6.588;2023-10-19T17:55:02;99078.91;;;15.09;97.23
76260;BME280;65076;52.362;6.588;2023-10-19T18:02:45;99100.44;;;15.12;97.84
76260;BME280;65076;52.362;6.588;2023-10-19T18:07:47;99087.22;;;15.07;96.64
76260;BME280;65076;52.362;6.588;2023-10-19T18:10:20;99080.06;;;15.16;96.38
76260;BME280;65076;52.362;6.588;2023-10-19T18:17:58;99086.00;;;15.48;93.67
76260;BME280;65076;52.362;6.588;2023-10-19T18:28:08;99082.94;;;14.47;97.61
76260;BME280;65076;52.362;6.588;2023-10-19T18:33:13;99062.81;;;14.29;98.14
76260;BME280;65076;52.362;6.588;2023-10-19T18:35:46;99048.34;;;14.19;97.86
76260;BME280;65076;52.362;6.588;2023-10-19T18:38:18;99078.97;;;14.11;97.97
76260;BME280;65076;52.362;6.588;2023-10-19T18:43:28;99074.97;;;14.06;97.37
76260;BME280;65076;52.362;6.588;2023-10-19T18:48:32;99047.91;;;14.14;97.01
76260;BME280;65076;52.362;6.588;2023-10-19T18:53:52;99074.63;;;13.99;97.57
76260;BME280;65076;52.362;6.588;2023-10-19T18:59:00;99068.97;;;13.72;99.28
76260;BME280;65076;52.362;6.588;2023-10-19T19:04:10;99054.16;;;13.85;97.71
76260;BME280;65076;52.362;6.588;2023-10-19T19:06:46;99006.25;;;13.54;96.91
76260;BME280;65076;52.362;6.588;2023-10-19T19:09:21;99050.81;;;13.72;97.68
76260;BME280;65076;52.362;6.588;2023-10-19T19:16:54;99040.72;;;13.53;98.55
76260;BME280;65076;52.362;6.588;2023-10-19T19:22:03;99034.41;;;13.43;97.71
76260;BME280;65076;52.362;6.588;2023-10-19T19:29:43;99057.31;;;13.90;95.87
76260;BME280;65076;52.362;6.588;2023-10-19T19:34:47;99052.66;;;13.72;95.28
76260;BME280;65076;52.362;6.588;2023-10-19T19:39:52;99078.06;;;13.61;94.17
76260;BME280;65076;52.362;6.588;2023-10-19T19:44:52;99042.13;;;13.18;94.83
76260;BME280;65076;52.362;6.588;2023-10-19T19:47:24;99067.69;;;13.45;94.42
76260;BME280;65076;52.362;6.588;2023-10-19T19:55:03;99071.63;;;12.90;96.37
76260;BME280;65076;52.362;6.588;2023-10-19T20:02:46;99057.63;;;12.53;98.75
76260;BME280;65076;52.362;6.588;2023-10-19T20:07:53;99065.91;;;12.52;100.00
76260;BME280;65076;52.362;6.588;2023-10-19T20:10:38;99053.88;;;12.45;100.00
76260;BME280;65076;52.362;6.588;2023-10-19T20:18:21;99052.91;;;12.35;100.00
76260;BME280;65076;52.362;6.588;2023-10-19T20:28:31;99034.41;;;12.40;99.67
76260;BME280;65076;52.362;6.588;2023-10-19T20:31:04;99012.00;;;12.26;99.57
76260;BME280;65076;52.362;6.588;2023-10-19T20:38:36;99024.91;;;12.02;99.95
76260;BME280;65076;52.362;6.588;2023-10-19T20:41:12;99030.06;;;12.05;99.59
76260;BME280;65076;52.362;6.588;2023-10-19T20:48:55;99022.91;;;12.04;99.01
76260;BME280;65076;52.362;6.588;2023-10-19T20:51:34;99029.59;;;12.00;99.11
76260;BME280;65076;52.362;6.588;2023-10-19T20:54:10;99033.97;;;12.23;99.00
76260;BME280;65076;52.362;6.588;2023-10-19T21:01:47;99065.34;;;11.94;98.70
76260;BME280;65076;52.362;6.588;2023-10-19T21:06:50;99029.19;;;12.16;97.46
76260;BME280;65076;52.362;6.588;2023-10-19T21:11:51;99039.63;;;12.20;97.09
76260;BME280;65076;52.362;6.588;2023-10-19T21:14:23;99045.50;;;12.37;95.48
76260;BME280;65076;52.362;6.588;2023-10-19T21:21:59;99039.09;;;11.72;98.02
76260;BME280;65076;52.362;6.588;2023-10-19T21:32:06;99006.97;;;11.79;97.64
76260;BME280;65076;52.362;6.588;2023-10-19T21:37:12;99001.34;;;11.37;98.39
76260;BME280;65076;52.362;6.588;2023-10-19T21:42:18;98968.56;;;11.63;98.43
76260;BME280;65076;52.362;6.588;2023-10-19T21:49:50;98932.31;;;11.32;99.59
76260;BME280;65076;52.362;6.588;2023-10-19T21:54:55;98929.75;;;11.08;100.00
76260;BME280;65076;52.362;6.588;2023-10-19T22:04:51;98965.88;;;11.52;98.29
76260;BME280;65076;52.362;6.588;2023-10-19T22:09:57;98930.91;;;11.60;97.94
76260;BME280;65076;52.362;6.588;2023-10-19T22:14:58;98926.59;;;11.57;98.09
76260;BME280;65076;52.362;6.588;2023-10-19T22:17:32;98927.53;;;11.67;97.20
76260;BME280;65076;52.362;6.588;2023-10-19T22:22:35;98938.69;;;11.42;97.99
76260;BME280;65076;52.362;6.588;2023-10-19T22:27:48;98948.00;;;11.82;97.60
76260;BME280;65076;52.362;6.588;2023-10-19T22:32:51;98915.03;;;11.55;98.43
76260;BME280;65076;52.362;6.588;2023-10-19T22:37:53;98919.72;;;11.42;98.28
76260;BME280;65076;52.362;6.588;2023-10-19T22:40:26;98923.66;;;11.49;97.71
76260;BME280;65076;52.362;6.588;2023-10-19T22:48:07;98915.94;;;11.22;98.40
76260;BME280;65076;52.362;6.588;2023-10-19T22:58:10;98920.38;;;11.34;98.45
76260;BME280;65076;52.362;6.588;2023-10-19T23:08:18;98902.84;;;11.50;98.40
76260;BME280;65076;52.362;6.588;2023-10-19T23:13:26;98928.97;;;11.51;97.09
76260;BME280;65076;52.362;6.588;2023-10-19T23:18:36;98938.75;;;11.63;96.02
76260;BME280;65076;52.362;6.588;2023-10-19T23:21:12;98943.00;;;11.33;95.23
76260;BME280;65076;52.362;6.588;2023-10-19T23:28:55;98907.63;;;10.92;99.57
76260;BME280;65076;52.362;6.588;2023-10-19T23:36:34;98933.75;;;11.36;98.74
76260;BME280;65076;52.362;6.588;2023-10-19T23:44:10;98931.81;;;11.16;98.31
76260;BME280;65076;52.362;6.588;2023-10-19T23:49:13;98895.06;;;10.91;98.08
76260;BME280;65076;52.362;6.588;2023-10-19T23:56:49;98916.72;;;10.91;100.00
76260;BME280;65076;52.362;6.588;2023-10-19T23:59:26;98901.13;;;10.83;99.87
